sensor_id;sensor_type;location;lat;lon;timestamp;P1;durP1;ratioP1;P2;durP2;ratioP2
39094;SDS011;24840;47.508;19.376;2023-06-19T00:02:21;7.43;;;5.00;;
39094;SDS011;24840;47.508;19.376;2023-06-19T00:04:47;10.63;;;4.80;;
39094;SDS011;24840;47.508;19.376;2023-06-19T00:07:13;6.65;;;4.47;;
39094;SDS011;24840;47.508;19.376;2023-06-19T00:09:38;7.25;;;4.93;;
39094;SDS011;24840;47.508;19.376;2023-06-19T00:12:04;6.30;;;4.85;;
39094;SDS011;24840;47.508;19.376;2023-06-19T00:14:30;9.68;;;6.03;;
39094;SDS011;24840;47.508;19.376;2023-06-19T00:16:56;10.07;;;6.30;;
39094;SDS011;24840;47.508;19.376;2023-06-19T00:19:22;9.63;;;6.35;;
39094;SDS011;24840;47.508;19.376;2023-06-19T00:21:48;10.90;;;4.70;;
39094;SDS011;24840;47.508;19.376;2023-06-19T00:24:13;6.85;;;5.18;;
39094;SDS011;24840;47.508;19.376;2023-06-19T00:26:39;8.05;;;4.75;;
39094;SDS011;24840;47.508;19.376;2023-06-19T00:29:05;6.05;;;4.97;;
39094;SDS011;24840;47.508;19.376;2023-06-19T00:31:32;7.47;;;5.10;;
39094;SDS011;24840;47.508;19.376;2023-06-19T00:33:57;5.47;;;4.70;;
39094;SDS011;24840;47.508;19.376;2023-06-19T00:36:23;9.25;;;5.72;;
39094;SDS011;24840;47.508;19.376;2023-06-19T00:38:51;10.35;;;5.90;;
39094;SDS011;24840;47.508;19.376;2023-06-19T00:41:17;9.75;;;6.03;;
39094;SDS011;24840;47.508;19.376;2023-06-19T00:43:43;8.68;;;6.43;;
39094;SDS011;24840;47.508;19.376;2023-06-19T00:46:10;19.38;;;5.90;;
39094;SDS011;24840;47.508;19.376;2023-06-19T00:48:36;8.55;;;6.00;;
39094;SDS011;24840;47.508;19.376;2023-06-19T00:51:02;9.90;;;5.53;;
39094;SDS011;24840;47.508;19.376;2023-06-19T00:53:28;5.93;;;4.65;;
39094;SDS011;24840;47.508;19.376;2023-06-19T00:55:56;8.23;;;5.53;;
39094;SDS011;24840;47.508;19.376;2023-06-19T00:58:22;5.40;;;4.72;;
39094;SDS011;24840;47.508;19.376;2023-06-19T01:00:49;7.20;;;4.70;;
39094;SDS011;24840;47.508;19.376;2023-06-19T01:03:15;6.20;;;5.25;;
39094;SDS011;24840;47.508;19.376;2023-06-19T01:05:41;7.07;;;5.10;;
39094;SDS011;24840;47.508;19.376;2023-06-19T01:11:06;7.57;;;5.22;;
39094;SDS011;24840;47.508;19.376;2023-06-19T01:13:39;7.03;;;6.32;;
39094;SDS011;24840;47.508;19.376;2023-06-19T01:16:07;9.88;;;6.07;;
39094;SDS011;24840;47.508;19.376;2023-06-19T01:18:34;10.38;;;5.35;;
39094;SDS011;24840;47.508;19.376;2023-06-19T01:23:43;11.93;;;5.53;;
39094;SDS011;24840;47.508;19.376;2023-06-19T01:26:09;6.15;;;5.53;;
39094;SDS011;24840;47.508;19.376;2023-06-19T01:28:36;7.25;;;5.40;;
39094;SDS011;24840;47.508;19.376;2023-06-19T01:31:08;5.93;;;5.32;;
39094;SDS011;24840;47.508;19.376;2023-06-19T01:33:46;7.82;;;5.30;;
39094;SDS011;24840;47.508;19.376;2023-06-19T01:36:15;6.15;;;4.63;;
39094;SDS011;24840;47.508;19.376;2023-06-19T01:38:43;7.70;;;5.00;;
39094;SDS011;24840;47.508;19.376;2023-06-19T01:41:10;6.50;;;4.60;;
39094;SDS011;24840;47.508;19.376;2023-06-19T01:43:36;7.60;;;4.97;;
39094;SDS011;24840;47.508;19.376;2023-06-19T01:46:03;8.00;;;5.18;;
39094;SDS011;24840;47.508;19.376;2023-06-19T01:48:29;6.65;;;5.13;;
39094;SDS011;24840;47.508;19.376;2023-06-19T01:50:55;8.13;;;5.28;;
39094;SDS011;24840;47.508;19.376;2023-06-19T01:53:21;4.88;;;4.38;;
39094;SDS011;24840;47.508;19.376;2023-06-19T01:55:47;6.75;;;5.25;;
39094;SDS011;24840;47.508;19.376;2023-06-19T01:58:12;6.28;;;5.68;;
39094;SDS011;24840;47.508;19.376;2023-06-19T02:00:38;6.47;;;5.32;;
39094;SDS011;24840;47.508;19.376;2023-06-19T02:03:04;7.07;;;5.68;;
39094;SDS011;24840;47.508;19.376;2023-06-19T02:05:30;15.05;;;6.18;;
39094;SDS011;24840;47.508;19.376;2023-06-19T02:07:56;11.65;;;5.20;;
39094;SDS011;24840;47.508;19.376;2023-06-19T02:10:22;8.40;;;5.47;;
39094;SDS011;24840;47.508;19.376;2023-06-19T02:12:48;6.05;;;4.65;;
39094;SDS011;24840;47.508;19.376;2023-06-19T02:15:14;5.75;;;5.15;;
39094;SDS011;24840;47.508;19.376;2023-06-19T02:17:40;6.53;;;4.78;;
39094;SDS011;24840;47.508;19.376;2023-06-19T02:20:07;6.95;;;5.68;;
39094;SDS011;24840;47.508;19.376;2023-06-19T02:22:37;6.80;;;5.07;;
39094;SDS011;24840;47.508;19.376;2023-06-19T02:25:03;7.47;;;4.07;;
39094;SDS011;24840;47.508;19.376;2023-06-19T02:27:30;9.38;;;5.22;;
39094;SDS011;24840;47.508;19.376;2023-06-19T02:29:55;8.30;;;5.43;;
39094;SDS011;24840;47.508;19.376;2023-06-19T02:32:21;7.25;;;5.45;;
39094;SDS011;24840;47.508;19.376;2023-06-19T02:34:47;12.80;;;5.82;;
39094;SDS011;24840;47.508;19.376;2023-06-19T02:37:12;8.93;;;5.38;;
39094;SDS011;24840;47.508;19.376;2023-06-19T02:39:38;6.88;;;5.43;;
39094;SDS011;24840;47.508;19.376;2023-06-19T02:42:04;6.93;;;5.03;;
39094;SDS011;24840;47.508;19.376;2023-06-19T02:44:31;6.72;;;4.60;;
39094;SDS011;24840;47.508;19.376;2023-06-19T02:46:57;9.95;;;4.60;;
39094;SDS011;24840;47.508;19.376;2023-06-19T02:49:22;7.15;;;5.05;;
39094;SDS011;24840;47.508;19.376;2023-06-19T02:51:48;6.88;;;5.40;;
39094;SDS011;24840;47.508;19.376;2023-06-19T02:54:14;7.97;;;5.72;;
39094;SDS011;24840;47.508;19.376;2023-06-19T02:56:40;6.82;;;5.82;;
39094;SDS011;24840;47.508;19.376;2023-06-19T02:59:05;5.93;;;5.32;;
39094;SDS011;24840;47.508;19.376;2023-06-19T03:01:31;5.57;;;5.00;;
39094;SDS011;24840;47.508;19.376;2023-06-19T03:03:57;6.30;;;5.28;;
39094;SDS011;24840;47.508;19.376;2023-06-19T03:06:23;7.55;;;5.65;;
39094;SDS011;24840;47.508;19.376;2023-06-19T03:08:48;7.25;;;5.43;;
39094;SDS011;24840;47.508;19.376;2023-06-19T03:11:14;6.65;;;4.80;;
39094;SDS011;24840;47.508;19.376;2023-06-19T03:13:47;5.93;;;5.20;;
39094;SDS011;24840;47.508;19.376;2023-06-19T03:16:17;6.25;;;5.30;;
39094;SDS011;24840;47.508;19.376;2023-06-19T03:18:43;6.65;;;4.88;;
39094;SDS011;24840;47.508;19.376;2023-06-19T03:21:12;8.00;;;5.43;;
39094;SDS011;24840;47.508;19.376;2023-06-19T03:23:38;11.52;;;5.35;;
39094;SDS011;24840;47.508;19.376;2023-06-19T03:26:06;9.82;;;5.25;;
39094;SDS011;24840;47.508;19.376;2023-06-19T03:28:35;6.75;;;5.00;;
39094;SDS011;24840;47.508;19.376;2023-06-19T03:31:01;9.68;;;5.35;;
39094;SDS011;24840;47.508;19.376;2023-06-19T03:33:27;6.65;;;5.35;;
39094;SDS011;24840;47.508;19.376;2023-06-19T03:35:53;4.97;;;4.50;;
39094;SDS011;24840;47.508;19.376;2023-06-19T03:38:19;8.48;;;5.82;;
39094;SDS011;24840;47.508;19.376;2023-06-19T03:40:44;6.95;;;5.22;;
39094;SDS011;24840;47.508;19.376;2023-06-19T03:43:11;6.97;;;6.13;;
39094;SDS011;24840;47.508;19.376;2023-06-19T03:45:37;5.35;;;4.85;;
39094;SDS011;24840;47.508;19.376;2023-06-19T03:48:03;9.98;;;6.40;;
39094;SDS011;24840;47.508;19.376;2023-06-19T03:50:29;6.68;;;5.47;;
39094;SDS011;24840;47.508;19.376;2023-06-19T03:52:55;8.50;;;6.38;;
39094;SDS011;24840;47.508;19.376;2023-06-19T03:55:20;9.05;;;6.28;;
39094;SDS011;24840;47.508;19.376;2023-06-19T03:57:46;8.68;;;5.55;;
39094;SDS011;24840;47.508;19.376;2023-06-19T04:00:13;9.02;;;6.63;;
39094;SDS011;24840;47.508;19.376;2023-06-19T04:02:40;7.28;;;6.57;;
39094;SDS011;24840;47.508;19.376;2023-06-19T04:05:07;6.93;;;6.05;;
39094;SDS011;24840;47.508;19.376;2023-06-19T04:07:32;10.93;;;6.85;;
39094;SDS011;24840;47.508;19.376;2023-06-19T04:09:58;7.18;;;6.32;;
39094;SDS011;24840;47.508;19.376;2023-06-19T04:12:24;8.63;;;7.03;;
39094;SDS011;24840;47.508;19.376;2023-06-19T04:14:50;8.18;;;6.63;;
39094;SDS011;24840;47.508;19.376;2023-06-19T04:17:16;7.03;;;6.40;;
39094;SDS011;24840;47.508;19.376;2023-06-19T04:19:42;7.90;;;6.10;;
39094;SDS011;24840;47.508;19.376;2023-06-19T04:22:08;7.50;;;6.60;;
39094;SDS011;24840;47.508;19.376;2023-06-19T04:24:34;12.75;;;6.85;;
39094;SDS011;24840;47.508;19.376;2023-06-19T04:27:00;9.20;;;7.00;;
39094;SDS011;24840;47.508;19.376;2023-06-19T04:29:26;8.50;;;7.07;;
39094;SDS011;24840;47.508;19.376;2023-06-19T04:31:56;8.60;;;7.30;;
39094;SDS011;24840;47.508;19.376;2023-06-19T04:34:28;9.57;;;6.43;;
39094;SDS011;24840;47.508;19.376;2023-06-19T04:36:54;10.45;;;7.38;;
39094;SDS011;24840;47.508;19.376;2023-06-19T04:39:23;9.40;;;7.15;;
39094;SDS011;24840;47.508;19.376;2023-06-19T04:41:49;8.23;;;7.40;;
39094;SDS011;24840;47.508;19.376;2023-06-19T04:44:15;7.53;;;6.70;;
39094;SDS011;24840;47.508;19.376;2023-06-19T04:46:42;14.85;;;8.25;;
39094;SDS011;24840;47.508;19.376;2023-06-19T04:49:11;12.18;;;8.30;;
39094;SDS011;24840;47.508;19.376;2023-06-19T04:51:38;12.43;;;7.88;;
39094;SDS011;24840;47.508;19.376;2023-06-19T04:54:05;12.60;;;8.70;;
39094;SDS011;24840;47.508;19.376;2023-06-19T04:56:31;8.68;;;6.97;;
39094;SDS011;24840;47.508;19.376;2023-06-19T04:58:57;10.05;;;7.22;;
39094;SDS011;24840;47.508;19.376;2023-06-19T05:01:24;15.52;;;7.47;;
39094;SDS011;24840;47.508;19.376;2023-06-19T05:03:55;10.15;;;7.78;;
39094;SDS011;24840;47.508;19.376;2023-06-19T05:06:25;9.35;;;8.32;;
39094;SDS011;24840;47.508;19.376;2023-06-19T05:08:51;8.32;;;7.53;;
39094;SDS011;24840;47.508;19.376;2023-06-19T05:11:17;9.20;;;8.30;;
39094;SDS011;24840;47.508;19.376;2023-06-19T05:13:43;11.32;;;9.07;;
39094;SDS011;24840;47.508;19.376;2023-06-19T05:16:09;11.02;;;8.23;;
39094;SDS011;24840;47.508;19.376;2023-06-19T05:18:35;11.40;;;9.35;;
39094;SDS011;24840;47.508;19.376;2023-06-19T05:21:01;10.32;;;8.88;;
39094;SDS011;24840;47.508;19.376;2023-06-19T05:23:26;11.80;;;8.55;;
39094;SDS011;24840;47.508;19.376;2023-06-19T05:25:52;11.68;;;8.40;;
39094;SDS011;24840;47.508;19.376;2023-06-19T05:28:18;11.65;;;8.95;;
39094;SDS011;24840;47.508;19.376;2023-06-19T05:30:44;18.00;;;9.80;;
39094;SDS011;24840;47.508;19.376;2023-06-19T05:33:09;13.63;;;9.10;;
39094;SDS011;24840;47.508;19.376;2023-06-19T05:35:38;9.40;;;8.13;;
39094;SDS011;24840;47.508;19.376;2023-06-19T05:38:04;8.85;;;7.95;;
39094;SDS011;24840;47.508;19.376;2023-06-19T05:40:30;10.93;;;9.20;;
39094;SDS011;24840;47.508;19.376;2023-06-19T05:42:56;10.35;;;9.35;;
39094;SDS011;24840;47.508;19.376;2023-06-19T05:45:21;12.07;;;9.63;;
39094;SDS011;24840;47.508;19.376;2023-06-19T05:47:47;13.52;;;10.27;;
39094;SDS011;24840;47.508;19.376;2023-06-19T05:50:13;11.43;;;8.95;;
39094;SDS011;24840;47.508;19.376;2023-06-19T05:52:38;13.65;;;10.07;;
39094;SDS011;24840;47.508;19.376;2023-06-19T05:55:08;11.80;;;10.55;;
39094;SDS011;24840;47.508;19.376;2023-06-19T05:57:35;13.05;;;11.77;;
39094;SDS011;24840;47.508;19.376;2023-06-19T06:00:00;12.00;;;10.70;;
39094;SDS011;24840;47.508;19.376;2023-06-19T06:02:28;11.13;;;10.02;;
39094;SDS011;24840;47.508;19.376;2023-06-19T06:04:54;11.88;;;10.77;;
39094;SDS011;24840;47.508;19.376;2023-06-19T06:07:21;8.88;;;8.02;;
39094;SDS011;24840;47.508;19.376;2023-06-19T06:09:47;13.30;;;11.90;;
39094;SDS011;24840;47.508;19.376;2023-06-19T06:12:12;12.43;;;10.82;;
39094;SDS011;24840;47.508;19.376;2023-06-19T06:14:39;14.95;;;13.57;;
39094;SDS011;24840;47.508;19.376;2023-06-19T06:17:06;10.70;;;9.63;;
39094;SDS011;24840;47.508;19.376;2023-06-19T06:19:32;10.40;;;9.40;;
39094;SDS011;24840;47.508;19.376;2023-06-19T06:21:58;14.05;;;10.82;;
39094;SDS011;24840;47.508;19.376;2023-06-19T06:24:23;11.13;;;10.13;;
39094;SDS011;24840;47.508;19.376;2023-06-19T06:26:49;12.77;;;11.48;;
39094;SDS011;24840;47.508;19.376;2023-06-19T06:29:15;13.18;;;10.35;;
39094;SDS011;24840;47.508;19.376;2023-06-19T06:31:40;9.95;;;9.05;;
39094;SDS011;24840;47.508;19.376;2023-06-19T06:34:06;13.45;;;10.23;;
39094;SDS011;24840;47.508;19.376;2023-06-19T06:36:32;10.15;;;8.93;;
39094;SDS011;24840;47.508;19.376;2023-06-19T06:38:58;10.00;;;8.27;;
39094;SDS011;24840;47.508;19.376;2023-06-19T06:41:24;11.63;;;9.45;;
39094;SDS011;24840;47.508;19.376;2023-06-19T06:43:49;8.52;;;7.72;;
39094;SDS011;24840;47.508;19.376;2023-06-19T06:46:15;10.00;;;9.07;;
39094;SDS011;24840;47.508;19.376;2023-06-19T06:48:41;9.18;;;8.27;;
39094;SDS011;24840;47.508;19.376;2023-06-19T06:51:06;11.75;;;8.02;;
39094;SDS011;24840;47.508;19.376;2023-06-19T06:53:34;7.45;;;6.82;;
39094;SDS011;24840;47.508;19.376;2023-06-19T06:55:59;8.23;;;7.53;;
39094;SDS011;24840;47.508;19.376;2023-06-19T06:58:25;8.23;;;7.50;;
39094;SDS011;24840;47.508;19.376;2023-06-19T07:00:52;7.93;;;6.88;;
39094;SDS011;24840;47.508;19.376;2023-06-19T07:03:18;7.95;;;7.15;;
39094;SDS011;24840;47.508;19.376;2023-06-19T07:05:44;7.55;;;6.85;;
39094;SDS011;24840;47.508;19.376;2023-06-19T07:08:10;7.85;;;7.13;;
39094;SDS011;24840;47.508;19.376;2023-06-19T07:10:36;7.30;;;6.60;;
39094;SDS011;24840;47.508;19.376;2023-06-19T07:13:02;7.18;;;6.57;;
39094;SDS011;24840;47.508;19.376;2023-06-19T07:15:27;7.72;;;6.93;;
39094;SDS011;24840;47.508;19.376;2023-06-19T07:17:53;8.13;;;6.15;;
39094;SDS011;24840;47.508;19.376;2023-06-19T07:20:19;7.38;;;6.55;;
39094;SDS011;24840;47.508;19.376;2023-06-19T07:22:45;8.15;;;6.85;;
39094;SDS011;24840;47.508;19.376;2023-06-19T07:25:11;6.00;;;5.50;;
39094;SDS011;24840;47.508;19.376;2023-06-19T07:27:38;6.25;;;5.65;;
39094;SDS011;24840;47.508;19.376;2023-06-19T07:30:06;5.82;;;5.35;;
39094;SDS011;24840;47.508;19.376;2023-06-19T07:32:32;6.95;;;6.32;;
39094;SDS011;24840;47.508;19.376;2023-06-19T07:34:58;6.50;;;5.90;;
39094;SDS011;24840;47.508;19.376;2023-06-19T07:37:24;6.32;;;5.80;;
39094;SDS011;24840;47.508;19.376;2023-06-19T07:39:51;6.68;;;5.95;;
39094;SDS011;24840;47.508;19.376;2023-06-19T07:42:17;6.15;;;5.65;;
39094;SDS011;24840;47.508;19.376;2023-06-19T07:44:44;8.25;;;6.03;;
39094;SDS011;24840;47.508;19.376;2023-06-19T07:47:10;6.97;;;5.28;;
39094;SDS011;24840;47.508;19.376;2023-06-19T07:49:37;6.15;;;5.55;;
39094;SDS011;24840;47.508;19.376;2023-06-19T07:52:03;7.20;;;6.50;;
39094;SDS011;24840;47.508;19.376;2023-06-19T07:54:29;6.63;;;5.45;;
39094;SDS011;24840;47.508;19.376;2023-06-19T07:56:55;7.40;;;5.30;;
39094;SDS011;24840;47.508;19.376;2023-06-19T07:59:21;6.43;;;5.57;;
39094;SDS011;24840;47.508;19.376;2023-06-19T08:01:47;5.60;;;5.10;;
39094;SDS011;24840;47.508;19.376;2023-06-19T08:04:13;5.93;;;5.32;;
39094;SDS011;24840;47.508;19.376;2023-06-19T08:06:39;5.80;;;5.00;;
39094;SDS011;24840;47.508;19.376;2023-06-19T08:09:05;6.03;;;5.32;;
39094;SDS011;24840;47.508;19.376;2023-06-19T08:11:30;5.90;;;4.90;;
39094;SDS011;24840;47.508;19.376;2023-06-19T08:13:56;5.95;;;5.45;;
39094;SDS011;24840;47.508;19.376;2023-06-19T08:16:24;7.18;;;5.57;;
39094;SDS011;24840;47.508;19.376;2023-06-19T08:18:50;6.72;;;5.40;;
39094;SDS011;24840;47.508;19.376;2023-06-19T08:21:17;6.40;;;5.80;;
39094;SDS011;24840;47.508;19.376;2023-06-19T08:23:43;5.50;;;5.00;;
39094;SDS011;24840;47.508;19.376;2023-06-19T08:26:09;5.65;;;5.20;;
39094;SDS011;24840;47.508;19.376;2023-06-19T08:28:37;5.85;;;4.95;;
39094;SDS011;24840;47.508;19.376;2023-06-19T08:31:05;5.40;;;4.90;;
39094;SDS011;24840;47.508;19.376;2023-06-19T08:33:31;6.50;;;5.72;;
39094;SDS011;24840;47.508;19.376;2023-06-19T08:35:59;5.38;;;4.72;;
39094;SDS011;24840;47.508;19.376;2023-06-19T08:38:24;5.25;;;4.80;;
39094;SDS011;24840;47.508;19.376;2023-06-19T08:40:50;6.32;;;5.60;;
39094;SDS011;24840;47.508;19.376;2023-06-19T08:43:16;5.93;;;5.43;;
39094;SDS011;24840;47.508;19.376;2023-06-19T08:45:41;5.55;;;5.05;;
39094;SDS011;24840;47.508;19.376;2023-06-19T08:48:07;5.70;;;5.10;;
39094;SDS011;24840;47.508;19.376;2023-06-19T08:50:38;5.53;;;5.03;;
39094;SDS011;24840;47.508;19.376;2023-06-19T08:53:04;5.78;;;5.20;;
39094;SDS011;24840;47.508;19.376;2023-06-19T08:55:30;6.30;;;5.70;;
39094;SDS011;24840;47.508;19.376;2023-06-19T08:57:55;5.10;;;4.63;;
39094;SDS011;24840;47.508;19.376;2023-06-19T09:00:25;5.93;;;5.28;;
39094;SDS011;24840;47.508;19.376;2023-06-19T09:02:52;5.80;;;5.32;;
39094;SDS011;24840;47.508;19.376;2023-06-19T09:05:27;6.13;;;5.50;;
39094;SDS011;24840;47.508;19.376;2023-06-19T09:07:57;6.72;;;6.10;;
39094;SDS011;24840;47.508;19.376;2023-06-19T09:10:27;6.72;;;5.45;;
39094;SDS011;24840;47.508;19.376;2023-06-19T09:13:00;5.85;;;5.43;;
39094;SDS011;24840;47.508;19.376;2023-06-19T09:15:28;6.00;;;5.00;;
39094;SDS011;24840;47.508;19.376;2023-06-19T09:18:01;5.50;;;5.00;;
39094;SDS011;24840;47.508;19.376;2023-06-19T09:20:37;6.27;;;5.67;;
39094;SDS011;24840;47.508;19.376;2023-06-19T09:23:05;5.70;;;5.17;;
39094;SDS011;24840;47.508;19.376;2023-06-19T09:25:31;6.35;;;5.15;;
39094;SDS011;24840;47.508;19.376;2023-06-19T09:27:57;5.57;;;5.07;;
39094;SDS011;24840;47.508;19.376;2023-06-19T09:30:23;5.85;;;5.32;;
39094;SDS011;24840;47.508;19.376;2023-06-19T09:32:49;6.18;;;5.57;;
39094;SDS011;24840;47.508;19.376;2023-06-19T09:35:14;5.55;;;4.88;;
39094;SDS011;24840;47.508;19.376;2023-06-19T09:37:40;5.53;;;5.03;;
39094;SDS011;24840;47.508;19.376;2023-06-19T09:40:07;6.05;;;5.38;;
39094;SDS011;24840;47.508;19.376;2023-06-19T09:42:42;5.50;;;5.10;;
39094;SDS011;24840;47.508;19.376;2023-06-19T09:45:10;6.43;;;5.93;;
39094;SDS011;24840;47.508;19.376;2023-06-19T09:47:38;6.22;;;5.18;;
39094;SDS011;24840;47.508;19.376;2023-06-19T09:50:10;6.43;;;5.82;;
39094;SDS011;24840;47.508;19.376;2023-06-19T09:52:38;5.50;;;5.03;;
39094;SDS011;24840;47.508;19.376;2023-06-19T09:55:05;7.07;;;6.38;;
39094;SDS011;24840;47.508;19.376;2023-06-19T09:57:33;5.35;;;4.95;;
39094;SDS011;24840;47.508;19.376;2023-06-19T10:00:00;6.00;;;5.50;;
39094;SDS011;24840;47.508;19.376;2023-06-19T10:02:35;6.15;;;5.65;;
39094;SDS011;24840;47.508;19.376;2023-06-19T10:05:01;5.90;;;5.30;;
39094;SDS011;24840;47.508;19.376;2023-06-19T10:07:32;6.38;;;5.38;;
39094;SDS011;24840;47.508;19.376;2023-06-19T10:10:06;5.97;;;5.25;;
39094;SDS011;24840;47.508;19.376;2023-06-19T10:12:34;8.13;;;5.93;;
39094;SDS011;24840;47.508;19.376;2023-06-19T10:17:42;6.10;;;5.50;;
39094;SDS011;24840;47.508;19.376;2023-06-19T10:20:20;5.93;;;5.43;;
39094;SDS011;24840;47.508;19.376;2023-06-19T10:22:50;6.45;;;5.95;;
39094;SDS011;24840;47.508;19.376;2023-06-19T10:25:29;5.88;;;5.38;;
39094;SDS011;24840;47.508;19.376;2023-06-19T10:27:59;7.57;;;5.85;;
39094;SDS011;24840;47.508;19.376;2023-06-19T10:30:26;6.57;;;5.53;;
39094;SDS011;24840;47.508;19.376;2023-06-19T10:32:52;6.65;;;5.95;;
39094;SDS011;24840;47.508;19.376;2023-06-19T10:35:18;6.28;;;5.68;;
39094;SDS011;24840;47.508;19.376;2023-06-19T10:37:49;6.18;;;5.68;;
39094;SDS011;24840;47.508;19.376;2023-06-19T10:40:15;6.10;;;5.60;;
39094;SDS011;24840;47.508;19.376;2023-06-19T10:42:42;5.47;;;4.97;;
39094;SDS011;24840;47.508;19.376;2023-06-19T10:45:09;6.38;;;5.78;;
39094;SDS011;24840;47.508;19.376;2023-06-19T10:47:41;6.95;;;5.90;;
39094;SDS011;24840;47.508;19.376;2023-06-19T10:50:11;7.38;;;6.68;;
39094;SDS011;24840;47.508;19.376;2023-06-19T10:52:42;6.65;;;5.70;;
39094;SDS011;24840;47.508;19.376;2023-06-19T10:55:09;6.00;;;5.60;;
39094;SDS011;24840;47.508;19.376;2023-06-19T10:57:35;6.13;;;5.63;;
39094;SDS011;24840;47.508;19.376;2023-06-19T11:00:01;7.25;;;5.90;;
39094;SDS011;24840;47.508;19.376;2023-06-19T11:02:36;7.55;;;5.63;;
39094;SDS011;24840;47.508;19.376;2023-06-19T11:05:04;7.45;;;5.90;;
39094;SDS011;24840;47.508;19.376;2023-06-19T11:07:31;6.80;;;6.15;;
39094;SDS011;24840;47.508;19.376;2023-06-19T11:09:57;6.03;;;5.53;;
39094;SDS011;24840;47.508;19.376;2023-06-19T11:12:23;5.88;;;5.28;;
39094;SDS011;24840;47.508;19.376;2023-06-19T11:14:49;5.93;;;5.43;;
39094;SDS011;24840;47.508;19.376;2023-06-19T11:17:15;7.38;;;5.72;;
39094;SDS011;24840;47.508;19.376;2023-06-19T11:19:45;5.70;;;5.22;;
39094;SDS011;24840;47.508;19.376;2023-06-19T11:22:11;5.47;;;5.07;;
39094;SDS011;24840;47.508;19.376;2023-06-19T11:24:42;6.43;;;5.85;;
39094;SDS011;24840;47.508;19.376;2023-06-19T11:27:13;6.63;;;6.03;;
39094;SDS011;24840;47.508;19.376;2023-06-19T11:29:58;5.60;;;5.20;;
39094;SDS011;24840;47.508;19.376;2023-06-19T11:32:29;5.93;;;5.53;;
39094;SDS011;24840;47.508;19.376;2023-06-19T11:34:56;5.63;;;5.13;;
39094;SDS011;24840;47.508;19.376;2023-06-19T11:37:23;5.93;;;5.43;;
39094;SDS011;24840;47.508;19.376;2023-06-19T11:39:49;6.55;;;5.95;;
39094;SDS011;24840;47.508;19.376;2023-06-19T11:42:18;5.30;;;4.90;;
39094;SDS011;24840;47.508;19.376;2023-06-19T11:47:20;5.95;;;5.45;;
39094;SDS011;24840;47.508;19.376;2023-06-19T11:49:48;6.35;;;5.68;;
39094;SDS011;24840;47.508;19.376;2023-06-19T11:52:15;14.20;;;6.22;;
39094;SDS011;24840;47.508;19.376;2023-06-19T11:54:41;5.57;;;5.18;;
39094;SDS011;24840;47.508;19.376;2023-06-19T11:57:08;12.02;;;5.57;;
39094;SDS011;24840;47.508;19.376;2023-06-19T11:59:38;6.30;;;5.70;;
39094;SDS011;24840;47.508;19.376;2023-06-19T12:02:07;6.00;;;5.57;;
39094;SDS011;24840;47.508;19.376;2023-06-19T12:04:33;6.35;;;5.75;;
39094;SDS011;24840;47.508;19.376;2023-06-19T12:06:59;8.70;;;6.07;;
39094;SDS011;24840;47.508;19.376;2023-06-19T12:09:25;6.40;;;5.88;;
39094;SDS011;24840;47.508;19.376;2023-06-19T12:11:52;7.22;;;6.57;;
39094;SDS011;24840;47.508;19.376;2023-06-19T12:14:18;6.53;;;5.90;;
39094;SDS011;24840;47.508;19.376;2023-06-19T12:16:47;6.63;;;6.03;;
39094;SDS011;24840;47.508;19.376;2023-06-19T12:19:13;6.80;;;6.00;;
39094;SDS011;24840;47.508;19.376;2023-06-19T12:21:39;7.10;;;6.50;;
39094;SDS011;24840;47.508;19.376;2023-06-19T12:24:05;6.80;;;6.15;;
39094;SDS011;24840;47.508;19.376;2023-06-19T12:26:32;6.72;;;5.72;;
39094;SDS011;24840;47.508;19.376;2023-06-19T12:29:05;6.15;;;5.65;;
39094;SDS011;24840;47.508;19.376;2023-06-19T12:31:32;6.55;;;6.05;;
39094;SDS011;24840;47.508;19.376;2023-06-19T12:33:58;6.93;;;6.22;;
39094;SDS011;24840;47.508;19.376;2023-06-19T12:36:26;6.18;;;5.68;;
39094;SDS011;24840;47.508;19.376;2023-06-19T12:38:52;5.72;;;5.22;;
39094;SDS011;24840;47.508;19.376;2023-06-19T12:41:21;6.55;;;6.05;;
39094;SDS011;24840;47.508;19.376;2023-06-19T12:43:47;6.45;;;5.95;;
39094;SDS011;24840;47.508;19.376;2023-06-19T12:46:14;5.70;;;5.30;;
39094;SDS011;24840;47.508;19.376;2023-06-19T12:48:43;7.10;;;6.05;;
39094;SDS011;24840;47.508;19.376;2023-06-19T12:51:08;7.47;;;6.15;;
39094;SDS011;24840;47.508;19.376;2023-06-19T12:53:34;6.82;;;6.28;;
39094;SDS011;24840;47.508;19.376;2023-06-19T12:56:00;6.93;;;6.22;;
39094;SDS011;24840;47.508;19.376;2023-06-19T12:58:26;8.13;;;6.15;;
39094;SDS011;24840;47.508;19.376;2023-06-19T13:00:53;6.47;;;5.82;;
39094;SDS011;24840;47.508;19.376;2023-06-19T13:03:19;6.88;;;5.55;;
39094;SDS011;24840;47.508;19.376;2023-06-19T13:05:48;6.25;;;5.70;;
39094;SDS011;24840;47.508;19.376;2023-06-19T13:08:13;7.03;;;6.45;;
39094;SDS011;24840;47.508;19.376;2023-06-19T13:10:40;6.60;;;6.05;;
39094;SDS011;24840;47.508;19.376;2023-06-19T13:13:06;5.53;;;5.10;;
39094;SDS011;24840;47.508;19.376;2023-06-19T13:15:31;6.68;;;6.07;;
39094;SDS011;24840;47.508;19.376;2023-06-19T13:18:00;5.93;;;5.53;;
39094;SDS011;24840;47.508;19.376;2023-06-19T13:20:26;6.13;;;5.53;;
39094;SDS011;24840;47.508;19.376;2023-06-19T13:22:52;6.53;;;6.03;;
39094;SDS011;24840;47.508;19.376;2023-06-19T13:25:18;6.82;;;6.22;;
39094;SDS011;24840;47.508;19.376;2023-06-19T13:27:44;7.13;;;6.55;;
39094;SDS011;24840;47.508;19.376;2023-06-19T13:30:10;6.80;;;6.05;;
39094;SDS011;24840;47.508;19.376;2023-06-19T13:32:36;6.75;;;5.90;;
39094;SDS011;24840;47.508;19.376;2023-06-19T13:35:03;6.75;;;6.18;;
39094;SDS011;24840;47.508;19.376;2023-06-19T13:37:30;6.82;;;6.32;;
39094;SDS011;24840;47.508;19.376;2023-06-19T13:39:55;7.63;;;6.93;;
39094;SDS011;24840;47.508;19.376;2023-06-19T13:42:21;6.93;;;6.40;;
39094;SDS011;24840;47.508;19.376;2023-06-19T13:44:47;7.47;;;6.78;;
39094;SDS011;24840;47.508;19.376;2023-06-19T13:47:13;7.20;;;6.70;;
39094;SDS011;24840;47.508;19.376;2023-06-19T13:49:39;6.88;;;6.10;;
39094;SDS011;24840;47.508;19.376;2023-06-19T13:52:05;6.88;;;6.30;;
39094;SDS011;24840;47.508;19.376;2023-06-19T13:54:31;6.60;;;6.05;;
39094;SDS011;24840;47.508;19.376;2023-06-19T13:56:57;7.22;;;6.53;;
39094;SDS011;24840;47.508;19.376;2023-06-19T13:59:23;6.40;;;5.90;;
39094;SDS011;24840;47.508;19.376;2023-06-19T14:01:49;6.30;;;5.80;;
39094;SDS011;24840;47.508;19.376;2023-06-19T14:04:15;6.82;;;6.30;;
39094;SDS011;24840;47.508;19.376;2023-06-19T14:06:40;6.95;;;6.28;;
39094;SDS011;24840;47.508;19.376;2023-06-19T14:09:08;7.00;;;6.25;;
39094;SDS011;24840;47.508;19.376;2023-06-19T14:11:33;7.00;;;6.40;;
39094;SDS011;24840;47.508;19.376;2023-06-19T14:13:59;9.88;;;7.70;;
39094;SDS011;24840;47.508;19.376;2023-06-19T14:16:25;7.45;;;6.63;;
39094;SDS011;24840;47.508;19.376;2023-06-19T14:18:50;8.45;;;6.60;;
39094;SDS011;24840;47.508;19.376;2023-06-19T14:21:16;10.27;;;7.25;;
39094;SDS011;24840;47.508;19.376;2023-06-19T14:23:42;6.90;;;6.20;;
39094;SDS011;24840;47.508;19.376;2023-06-19T14:26:10;6.97;;;6.38;;
39094;SDS011;24840;47.508;19.376;2023-06-19T14:28:37;6.90;;;6.32;;
39094;SDS011;24840;47.508;19.376;2023-06-19T14:31:05;7.15;;;6.45;;
39094;SDS011;24840;47.508;19.376;2023-06-19T14:33:31;7.82;;;6.72;;
39094;SDS011;24840;47.508;19.376;2023-06-19T14:35:58;7.55;;;6.85;;
39094;SDS011;24840;47.508;19.376;2023-06-19T14:38:25;7.20;;;6.30;;
39094;SDS011;24840;47.508;19.376;2023-06-19T14:40:53;6.32;;;5.82;;